Airfield :
LOGIN :

Register | Disclaimer

   EN    FR    IT 

 










Legend :    VFR   Marginal VFR   IFR   Intensive IFR   Very Intensive IFR
Visi :
Ceiling :
>= 8 km
>= 3000ft
5 to 8 km
1000 to 3000 ft
1500m to 5 km
500 to 1000 ft
800 to 1500m
200 to 500 ft
< 800m
< 200 ft
Symbols :   Thunderstorms  Fog  Heavy snow  Heavy precipitations  Wind > 20 kt
SIGMETs :     Misc.  Thunderstorms  Icing  Turbulence  Mountain Waves  Volcanic Ashes






- Airport Elevation : 220 ft
- IATA code : CWL


EGFF - Cardiff Rhoose

CURRENT METAR :
  • 201150Z AUTO 20014KT 9999 OVC013/// //////TCU 10/09 Q0983

EXPIRED METARs :
  • 201120Z AUTO 20012KT 9999 BKN015/// OVC020/// //////TCU 10/09 Q0984
  • 201050Z AUTO 20015KT 9000 -RA BKN016/// OVC024/// //////TCU 10/09 Q0984
  • 201020Z AUTO 20015KT 9999 BKN013/// OVC021/// //////TCU 10/09 Q0985
  • 200950Z AUTO 20010KT 9999 BKN013 OVC017 10/09 Q0985
  • 200920Z AUTO 20009KT 9999 OVC014 10/10 Q0986

TAF TAF EGFF
Valid from the 20 at 12:00 until the 21 at 12:00 UTC


201104Z 2012/2112 20014KT 9999 -RA SCT007 BKN015
TEMPO 2012/2022 19018G29KT 4000 RA BKN009
PROB40
TEMPO 2012/2021 +RA BKN004
BECMG 2019/2022 28014KT NSW
TEMPO 2022/2112 26018G28KT 5000 SHRA BKN010
ATIS : +44 1446 729 319



MET'MAP, your aeronautical weather chart ! - Copyright ORBIFLY December 2007 - Disclaimer

ORBIFLY MET'MAP TEAM :

Programming & Development : Alexandra Zaïnal
Concept & original design : Baudouin d'Aumeries
Assistance for programming : Marc-Olivier Méhu
Technical & hardware support : Manuel Goepfert

Contact : metmap@orbifly.com




SOURCES & CREDITS :

   NOAA